To NAV CANADA Home Page Login to a new session Search on AWWS site Feedback and Comments Disclaimer Vers la page française équivalente Tips FAQ What's new on the site To the Forecasts and Observations / NOTAM section To "File a Flight Plan" website Publications and other links Update of the User's profile FIC Telephone Numbers My Weather Data Folder Route Weather Data Regional Weather Data Local Weather Data To the Forecasts and Observations / NOTAM section
Request Generated 07/26/2017 at 04:27:51 UTC . Weather information available at that time is displayed.

METAR/TAF

MONCTON/GREATER MONCTON ROMEO LEBLANC INTL/NB    

METAR CYQM 260400Z 35003KT 15SM FEW220 11/11 A3015 RMK CI1 SLP212=
METAR CYQM 260300Z 34004KT 15SM FEW220 11/10 A3014 RMK CI1 SLP210=
METAR CYQM 260200Z 36002KT 15SM FEW150 FEW220 12/12 A3014 RMK AC1CI1
SLP208=

TAF CYQM 252338Z 2600/2624 36008KT P6SM FEW090 SCT160
FM260200 VRB03KT P6SM SKC PROB30 2607/2611 3/4SM BR
FM261300 19007KT P6SM FEW030
RMK NXT FCST BY 260600Z=
Your time UTC time
Weather data provided by Environment Canada and NAV CANADA